createdAt,value
2018-10-12T00:02:23.257Z,6.37
2018-10-12T00:04:50.905Z,6.33
2018-10-12T00:07:18.576Z,6.05
2018-10-12T00:09:46.166Z,7.63
2018-10-12T00:12:13.753Z,6.93
2018-10-12T00:14:41.318Z,6.47
2018-10-12T00:17:09.021Z,6.83
2018-10-12T00:19:36.768Z,6.78
2018-10-12T00:22:04.377Z,9.70
2018-10-12T00:24:31.973Z,8.90
2018-10-12T00:26:59.841Z,9.07
2018-10-12T00:29:27.562Z,7.40
2018-10-12T00:31:55.115Z,7.63
2018-10-12T00:34:22.748Z,6.70
2018-10-12T00:36:50.365Z,6.50
2018-10-12T00:39:17.976Z,7.10
2018-10-12T00:41:45.593Z,8.30
2018-10-12T00:44:13.208Z,8.20
2018-10-12T00:46:40.867Z,8.65
2018-10-12T00:49:08.712Z,7.10
2018-10-12T00:51:36.331Z,5.87
2018-10-12T00:54:03.889Z,6.85
2018-10-12T00:56:31.507Z,7.30
2018-10-12T00:58:59.103Z,6.55
2018-10-12T01:01:26.694Z,7.97
2018-10-12T01:03:54.404Z,6.63
2018-10-12T01:06:22.274Z,8.28
2018-10-12T01:08:49.879Z,7.73
2018-10-12T01:11:17.589Z,8.15
2018-10-12T01:13:45.191Z,8.40
2018-10-12T01:16:13.057Z,7.65
2018-10-12T01:18:40.638Z,7.97
2018-10-12T01:21:08.217Z,7.33
2018-10-12T01:23:36.072Z,8.13
2018-10-12T01:26:03.829Z,6.63
2018-10-12T01:28:31.491Z,6.10
2018-10-12T01:30:59.180Z,5.73
2018-10-12T01:33:26.847Z,6.10
2018-10-12T01:35:54.455Z,5.97
2018-10-12T01:38:22.420Z,5.07
2018-10-12T01:40:50.459Z,6.03
2018-10-12T01:43:18.064Z,6.27
2018-10-12T01:45:45.648Z,6.20
2018-10-12T01:48:13.265Z,7.03
2018-10-12T01:50:40.927Z,5.70
2018-10-12T01:53:08.861Z,6.03
2018-10-12T01:55:36.463Z,5.37
2018-10-12T01:58:04.125Z,5.67
2018-10-12T02:00:31.764Z,6.00
2018-10-12T02:02:59.470Z,5.93
2018-10-12T02:05:27.095Z,6.70
2018-10-12T02:07:54.681Z,6.20
2018-10-12T02:10:22.339Z,6.00
2018-10-12T02:12:49.985Z,5.83
2018-10-12T02:15:17.552Z,5.60
2018-10-12T02:17:45.134Z,5.90
2018-10-12T02:20:13.153Z,5.83
2018-10-12T02:22:41.172Z,6.67
2018-10-12T02:25:09.334Z,6.20
2018-10-12T02:27:36.976Z,6.00
2018-10-12T02:30:05.565Z,6.30
2018-10-12T02:32:33.182Z,6.80
2018-10-12T02:35:00.773Z,6.07
2018-10-12T02:37:28.463Z,6.27
2018-10-12T02:39:56.097Z,6.40
2018-10-12T02:42:23.727Z,6.30
2018-10-12T02:44:51.313Z,5.67
2018-10-12T02:47:18.916Z,6.83
2018-10-12T02:49:46.533Z,5.70
2018-10-12T02:52:14.135Z,5.50
2018-10-12T02:54:41.732Z,4.97
2018-10-12T02:57:09.337Z,5.03
2018-10-12T02:59:36.909Z,5.00
2018-10-12T03:02:07.984Z,4.27
2018-10-12T03:04:35.575Z,6.00
2018-10-12T03:07:03.164Z,6.57
2018-10-12T03:09:30.744Z,6.03
2018-10-12T03:11:59.428Z,5.30
2018-10-12T03:14:26.992Z,5.30
2018-10-12T03:16:54.573Z,6.03
2018-10-12T03:19:22.152Z,7.03
2018-10-12T03:21:49.695Z,6.93
2018-10-12T03:24:17.297Z,6.90
2018-10-12T03:26:45.100Z,5.57
2018-10-12T03:29:12.840Z,5.77
2018-10-12T03:31:40.441Z,5.70
2018-10-12T03:34:08.121Z,5.67
2018-10-12T03:36:35.823Z,5.67
2018-10-12T03:39:04.355Z,5.80
2018-10-12T03:41:31.916Z,5.67
2018-10-12T03:43:59.537Z,5.70
2018-10-12T03:46:27.376Z,6.90
2018-10-12T03:48:54.995Z,6.97
2018-10-12T03:51:22.644Z,6.87
2018-10-12T03:53:50.245Z,5.87
2018-10-12T03:56:17.842Z,5.77
2018-10-12T03:58:45.382Z,8.00
2018-10-12T04:01:12.974Z,7.53
2018-10-12T04:03:40.511Z,6.73
2018-10-12T04:06:08.092Z,7.63
2018-10-12T04:08:35.650Z,7.23
2018-10-12T04:11:03.217Z,6.63
2018-10-12T04:13:30.765Z,6.37
2018-10-12T04:15:58.325Z,5.67
2018-10-12T04:18:25.870Z,5.33
2018-10-12T04:20:53.440Z,5.20
2018-10-12T04:23:21.039Z,4.87
2018-10-12T04:25:48.812Z,5.57
2018-10-12T04:28:16.332Z,5.63
2018-10-12T04:30:43.893Z,5.40
2018-10-12T04:33:11.505Z,5.37
2018-10-12T04:35:39.108Z,6.30
2018-10-12T04:38:06.753Z,6.27
2018-10-12T04:41:22.435Z,5.30
2018-10-12T04:43:51.883Z,5.20
2018-10-12T04:46:23.177Z,4.90
2018-10-12T04:48:51.239Z,5.17
2018-10-12T04:51:21.351Z,5.97
2018-10-12T04:53:49.130Z,6.23
2018-10-12T04:56:18.301Z,5.40
2018-10-12T04:58:45.965Z,5.77
2018-10-12T05:01:13.694Z,6.33
2018-10-12T05:03:41.304Z,5.97
2018-10-12T05:06:09.226Z,5.27
2018-10-12T05:08:37.430Z,5.07
2018-10-12T05:11:05.077Z,5.70
2018-10-12T05:13:33.776Z,6.20
2018-10-12T05:16:01.938Z,5.90
2018-10-12T05:18:29.717Z,5.57
2018-10-12T05:20:57.568Z,5.30
2018-10-12T05:23:25.158Z,6.00
2018-10-12T05:25:52.725Z,6.27
2018-10-12T05:28:20.384Z,5.20
2018-10-12T05:30:47.954Z,5.70
2018-10-12T05:33:15.605Z,6.10
2018-10-12T05:35:43.373Z,5.10
2018-10-12T05:38:10.995Z,4.93
2018-10-12T05:40:39.068Z,5.63
2018-10-12T05:43:06.741Z,5.90
2018-10-12T05:45:34.260Z,6.23
2018-10-12T05:48:13.266Z,7.20
2018-10-12T05:50:40.895Z,6.20
2018-10-12T05:53:08.522Z,7.03
2018-10-12T05:55:36.225Z,6.63
2018-10-12T05:58:03.842Z,5.80
2018-10-12T06:00:31.439Z,6.33
2018-10-12T06:02:59.010Z,6.07
2018-10-12T06:05:26.717Z,5.77
2018-10-12T06:07:54.284Z,6.07
2018-10-12T06:10:21.888Z,5.43
2018-10-12T06:12:49.466Z,5.57
2018-10-12T06:15:17.099Z,5.30
2018-10-12T06:17:44.916Z,5.93
2018-10-12T06:20:12.718Z,5.47
2018-10-12T06:22:40.447Z,4.97
2018-10-12T06:25:08.016Z,5.27
2018-10-12T06:27:35.576Z,4.80
2018-10-12T06:30:03.182Z,4.93
2018-10-12T06:32:30.813Z,5.43
2018-10-12T06:34:58.386Z,5.70
2018-10-12T06:37:25.927Z,5.17
2018-10-12T06:39:53.520Z,5.80
2018-10-12T06:42:21.145Z,5.90
2018-10-12T06:44:48.744Z,5.17
2018-10-12T06:47:16.371Z,4.87
2018-10-12T06:49:43.977Z,5.10
2018-10-12T06:52:11.573Z,5.57
2018-10-12T06:54:39.148Z,5.80
2018-10-12T06:57:06.701Z,5.43
2018-10-12T06:59:34.279Z,5.23
2018-10-12T07:02:01.904Z,4.70
2018-10-12T07:04:29.575Z,4.80
2018-10-12T07:06:57.207Z,4.70
2018-10-12T07:09:24.827Z,4.10
2018-10-12T07:11:52.439Z,5.03
2018-10-12T07:14:20.024Z,4.33
2018-10-12T07:16:47.567Z,4.12
2018-10-12T07:19:15.122Z,4.22
2018-10-12T07:21:42.644Z,3.45
2018-10-12T07:24:10.231Z,3.47
2018-10-12T07:26:37.816Z,3.40
2018-10-12T07:29:05.645Z,3.05
2018-10-12T07:31:33.270Z,2.70
2018-10-12T07:34:00.792Z,2.87
2018-10-12T07:36:28.339Z,2.98
2018-10-12T07:38:55.880Z,3.12
2018-10-12T07:41:23.461Z,2.90
2018-10-12T07:43:51.023Z,2.70
2018-10-12T07:46:18.610Z,2.70
2018-10-12T07:48:46.413Z,2.80
2018-10-12T07:51:13.992Z,3.30
2018-10-12T07:53:41.552Z,2.80
2018-10-12T07:56:09.229Z,2.55
2018-10-12T07:58:36.761Z,2.35
2018-10-12T08:01:04.353Z,2.33
2018-10-12T08:03:32.208Z,3.27
2018-10-12T08:05:59.873Z,3.42
2018-10-12T08:08:27.467Z,3.05
2018-10-12T08:10:55.059Z,2.77
2018-10-12T08:13:22.646Z,2.63
2018-10-12T08:15:52.964Z,2.30
2018-10-12T08:18:20.712Z,2.42
2018-10-12T08:20:48.376Z,2.33
2018-10-12T08:23:16.014Z,2.60
2018-10-12T08:25:43.600Z,3.52
2018-10-12T08:28:11.217Z,3.92
2018-10-12T08:30:38.744Z,6.08
2018-10-12T08:33:06.385Z,5.72
2018-10-12T08:35:34.141Z,6.10
2018-10-12T08:38:01.596Z,5.90
2018-10-12T08:40:29.132Z,5.95
2018-10-12T08:42:56.697Z,5.92
2018-10-12T08:45:24.277Z,5.35
2018-10-12T08:47:51.859Z,5.35
2018-10-12T08:50:19.448Z,4.58
2018-10-12T08:52:47.022Z,5.15
2018-10-12T08:55:14.872Z,5.00
2018-10-12T08:57:42.516Z,4.72
2018-10-12T09:00:10.132Z,4.35
2018-10-12T09:02:37.683Z,3.90
2018-10-12T09:05:05.808Z,3.90
2018-10-12T09:07:33.448Z,4.00
2018-10-12T09:10:01.092Z,3.90
2018-10-12T09:12:28.806Z,3.87
2018-10-12T09:14:56.363Z,3.92
2018-10-12T09:17:24.416Z,3.35
2018-10-12T09:19:52.052Z,3.50
2018-10-12T09:22:19.792Z,3.25
2018-10-12T09:24:47.620Z,3.42
2018-10-12T09:27:15.285Z,2.77
2018-10-12T09:29:43.028Z,2.22
2018-10-12T09:32:11.012Z,2.02
2018-10-12T09:34:38.613Z,2.25
2018-10-12T09:37:06.667Z,1.72
2018-10-12T09:39:34.208Z,1.62
2018-10-12T09:42:01.846Z,1.80
2018-10-12T09:44:29.428Z,1.95
2018-10-12T09:46:57.061Z,2.33
2018-10-12T09:49:25.229Z,2.20
2018-10-12T09:51:53.793Z,2.07
2018-10-12T09:54:21.350Z,1.82
2018-10-12T09:56:54.688Z,2.52
2018-10-12T09:59:22.597Z,1.67
2018-10-12T10:01:55.771Z,2.40
2018-10-12T10:04:28.941Z,2.50
2018-10-12T10:06:56.613Z,1.87
2018-10-12T10:09:24.161Z,2.42
2018-10-12T10:11:51.731Z,2.22
2018-10-12T10:14:19.466Z,2.12
2018-10-12T10:16:47.025Z,2.90
2018-10-12T10:19:14.716Z,1.90
2018-10-12T10:21:42.280Z,1.82
2018-10-12T10:24:09.862Z,1.60
2018-10-12T10:26:37.440Z,1.67
2018-10-12T10:29:05.361Z,1.90
2018-10-12T10:31:33.362Z,1.82
2018-10-12T10:34:01.257Z,1.62
2018-10-12T10:36:28.863Z,1.47
2018-10-12T10:38:56.507Z,1.42
2018-10-12T10:41:24.159Z,1.40
2018-10-12T10:43:51.778Z,1.30
2018-10-12T10:46:19.432Z,1.12
2018-10-12T10:48:47.010Z,1.20
2018-10-12T10:51:14.873Z,1.17
2018-10-12T10:53:42.541Z,1.32
2018-10-12T10:56:10.088Z,1.15
2018-10-12T10:58:37.715Z,1.35
2018-10-12T11:01:05.505Z,1.07
2018-10-12T11:03:33.056Z,1.12
2018-10-12T11:06:00.729Z,1.25
2018-10-12T11:08:28.331Z,1.30
2018-10-12T11:10:55.888Z,1.10
2018-10-12T11:13:23.499Z,1.20
2018-10-12T11:15:51.072Z,1.20
2018-10-12T11:18:19.013Z,1.40
2018-10-12T11:20:46.641Z,1.20
2018-10-12T11:23:14.306Z,1.30
2018-10-12T11:25:41.897Z,1.02
2018-10-12T11:28:09.469Z,1.10
2018-10-12T11:30:37.077Z,1.10
2018-10-12T11:33:04.715Z,1.67
2018-10-12T11:35:32.312Z,1.70
2018-10-12T11:37:59.890Z,1.12
2018-10-12T11:40:27.617Z,1.10
2018-10-12T11:43:38.829Z,1.30
2018-10-12T11:46:06.449Z,1.10
2018-10-12T11:48:34.068Z,1.27
2018-10-12T11:51:01.692Z,1.20
2018-10-12T11:53:29.370Z,1.07
2018-10-12T11:55:56.946Z,1.30
2018-10-12T11:58:25.028Z,1.60
2018-10-12T12:00:52.685Z,1.10
2018-10-12T12:03:20.349Z,1.00
2018-10-12T12:05:47.949Z,0.90
2018-10-12T12:08:15.576Z,1.30
2018-10-12T12:10:43.455Z,1.00
2018-10-12T12:13:11.022Z,1.00
2018-10-12T12:15:38.608Z,1.00
2018-10-12T12:18:06.748Z,1.20
2018-10-12T12:20:34.384Z,1.20
2018-10-12T12:23:02.058Z,1.37
2018-10-12T12:25:29.993Z,1.55
2018-10-12T12:27:57.629Z,14.33
2018-10-12T12:30:25.220Z,46.60
2018-10-12T12:32:52.793Z,19.80
2018-10-12T12:35:20.521Z,11.30
2018-10-12T12:37:48.037Z,7.47
2018-10-12T12:40:15.665Z,3.20
2018-10-12T12:42:43.436Z,3.50
2018-10-12T12:45:11.179Z,2.52
2018-10-12T12:47:39.304Z,2.30
2018-10-12T12:50:07.207Z,1.90
2018-10-12T12:52:35.221Z,1.80
2018-10-12T12:55:02.916Z,2.08
2018-10-12T12:57:30.563Z,1.70
2018-10-12T12:59:58.194Z,1.40
2018-10-12T13:02:25.891Z,1.70
2018-10-12T13:04:53.495Z,1.60
2018-10-12T13:07:21.190Z,2.15
2018-10-12T13:09:48.848Z,2.62
2018-10-12T13:12:17.466Z,2.50
2018-10-12T13:14:45.496Z,2.00
2018-10-12T13:17:13.573Z,2.08
2018-10-12T13:19:41.255Z,1.72
2018-10-12T13:22:09.208Z,1.70
2018-10-12T13:24:36.774Z,1.50
2018-10-12T13:27:04.423Z,1.40
2018-10-12T13:29:32.039Z,1.80
2018-10-12T13:31:59.659Z,1.80
2018-10-12T13:34:27.193Z,2.00
2018-10-12T13:36:54.908Z,1.82
2018-10-12T13:39:22.504Z,1.60
2018-10-12T13:41:50.052Z,2.40
2018-10-12T13:44:17.629Z,2.20
2018-10-12T13:46:45.261Z,1.90
2018-10-12T13:49:12.847Z,2.08
2018-10-12T13:51:40.445Z,1.90
2018-10-12T13:54:08.122Z,1.40
2018-10-12T13:56:35.701Z,1.80
2018-10-12T13:59:03.396Z,2.00
2018-10-12T14:01:30.956Z,2.75
2018-10-12T14:03:58.728Z,2.35
2018-10-12T14:06:26.303Z,1.80
2018-10-12T14:08:53.881Z,1.77
2018-10-12T14:11:21.480Z,1.50
2018-10-12T14:13:49.023Z,1.57
2018-10-12T14:16:16.664Z,1.65
2018-10-12T14:18:44.410Z,2.17
2018-10-12T14:21:11.861Z,2.05
2018-10-12T14:23:39.471Z,1.80
2018-10-12T14:26:07.313Z,1.65
2018-10-12T14:28:35.051Z,2.02
2018-10-12T14:31:02.573Z,1.62
2018-10-12T14:33:30.201Z,2.10
2018-10-12T14:35:57.741Z,2.00
2018-10-12T14:38:25.301Z,2.08
2018-10-12T14:40:52.946Z,2.25
2018-10-12T14:43:20.476Z,2.77
2018-10-12T14:45:48.049Z,2.60
2018-10-12T14:48:15.587Z,2.50
2018-10-12T14:50:43.195Z,2.20
2018-10-12T14:53:10.833Z,2.30
2018-10-12T14:55:39.599Z,2.08
2018-10-12T14:58:07.167Z,2.52
2018-10-12T15:00:34.733Z,2.85
2018-10-12T15:03:02.330Z,2.27
2018-10-12T15:05:29.851Z,2.00
2018-10-12T15:07:57.420Z,2.72
2018-10-12T15:10:24.969Z,2.37
2018-10-12T15:12:52.627Z,1.80
2018-10-12T15:15:21.717Z,1.90
2018-10-12T15:17:50.268Z,1.70
2018-10-12T15:20:17.949Z,1.75
2018-10-12T15:22:45.511Z,1.98
2018-10-12T15:25:13.093Z,1.67
2018-10-12T15:27:41.208Z,1.70
2018-10-12T15:30:09.485Z,1.65
2018-10-12T15:32:37.113Z,1.95
2018-10-12T15:35:04.679Z,1.90
2018-10-12T15:37:32.306Z,2.20
2018-10-12T15:40:00.192Z,2.20
2018-10-12T15:42:27.796Z,2.30
2018-10-12T15:44:55.423Z,2.10
2018-10-12T15:47:23.396Z,1.90
2018-10-12T15:49:51.104Z,1.95
2018-10-12T15:52:18.677Z,1.87
2018-10-12T15:54:46.361Z,1.62
2018-10-12T15:57:24.439Z,1.45
2018-10-12T15:59:52.018Z,1.57
2018-10-12T16:02:19.595Z,1.47
2018-10-12T16:04:47.242Z,1.67
2018-10-12T16:07:15.851Z,1.55
2018-10-12T16:09:44.024Z,1.40
2018-10-12T16:12:11.758Z,1.55
2018-10-12T16:14:39.324Z,1.72
2018-10-12T16:17:06.940Z,1.40
2018-10-12T16:19:34.516Z,1.47
2018-10-12T16:22:02.042Z,1.10
2018-10-12T16:24:29.663Z,1.25
2018-10-12T16:26:57.302Z,1.40
2018-10-12T16:29:24.820Z,1.57
2018-10-12T16:31:52.756Z,1.23
2018-10-12T16:34:20.323Z,1.27
2018-10-12T16:36:48.042Z,1.30
2018-10-12T16:39:15.738Z,1.15
2018-10-12T16:41:43.371Z,1.30
2018-10-12T16:44:11.247Z,1.50
2018-10-12T16:46:38.821Z,1.50
2018-10-12T16:49:06.433Z,1.40
2018-10-12T16:51:34.313Z,1.67
2018-10-12T16:54:01.892Z,1.72
2018-10-12T16:56:29.433Z,1.80
2018-10-12T16:58:57.084Z,1.90
2018-10-12T17:01:24.625Z,1.98
2018-10-12T17:03:52.140Z,2.05
2018-10-12T17:06:19.713Z,2.27
2018-10-12T17:08:47.249Z,2.72
2018-10-12T17:11:14.967Z,3.00
2018-10-12T17:13:42.489Z,2.60
2018-10-12T17:16:10.101Z,2.50
2018-10-12T17:18:37.685Z,2.60
2018-10-12T17:21:05.357Z,2.60
2018-10-12T17:23:32.977Z,1.98
2018-10-12T17:26:00.863Z,2.58
2018-10-12T17:28:28.687Z,3.22
2018-10-12T17:30:56.225Z,2.92
2018-10-12T17:33:24.003Z,2.83
2018-10-12T17:35:51.585Z,2.83
2018-10-12T17:38:19.141Z,3.27
2018-10-12T17:40:46.699Z,3.12
2018-10-12T17:43:14.254Z,3.57
2018-10-12T17:45:41.814Z,3.08
2018-10-12T17:48:09.439Z,2.87
2018-10-12T17:50:37.085Z,2.95
2018-10-12T17:53:04.974Z,2.90
2018-10-12T17:55:32.528Z,2.95
2018-10-12T17:58:00.146Z,2.92
2018-10-12T18:00:27.754Z,2.87
2018-10-12T18:02:55.284Z,2.70
2018-10-12T18:05:22.836Z,2.70
2018-10-12T18:07:50.387Z,2.45
2018-10-12T18:10:17.984Z,2.20
2018-10-12T18:12:45.559Z,2.65
2018-10-12T18:15:13.140Z,2.33
2018-10-12T18:17:41.076Z,2.58
2018-10-12T18:20:09.152Z,2.17
2018-10-12T18:22:36.812Z,2.60
2018-10-12T18:25:04.888Z,2.50
2018-10-12T18:27:32.486Z,2.62
2018-10-12T18:30:00.071Z,2.58
2018-10-12T18:32:27.641Z,3.15
2018-10-12T18:34:55.262Z,3.05
2018-10-12T18:37:22.820Z,2.70
2018-10-12T18:39:50.647Z,2.50
2018-10-12T18:42:18.252Z,2.40
2018-10-12T18:44:45.767Z,2.40
2018-10-12T18:47:13.440Z,2.98
2018-10-12T18:49:40.988Z,2.80
2018-10-12T18:52:08.656Z,2.65
2018-10-12T18:54:36.309Z,2.45
2018-10-12T18:57:03.980Z,2.72
2018-10-12T18:59:31.702Z,3.10
2018-10-12T19:01:59.322Z,2.50
2018-10-12T19:04:27.007Z,2.50
2018-10-12T19:06:54.628Z,2.45
2018-10-12T19:09:22.186Z,2.15
2018-10-12T19:11:49.757Z,2.30
2018-10-12T19:14:17.356Z,2.40
2018-10-12T19:16:44.903Z,2.67
2018-10-12T19:19:12.453Z,2.50
2018-10-12T19:21:40.027Z,2.90
2018-10-12T19:24:07.710Z,2.77
2018-10-12T19:26:35.210Z,2.70
2018-10-12T19:29:02.764Z,2.77
2018-10-12T19:31:30.400Z,2.62
2018-10-12T19:33:57.908Z,2.50
2018-10-12T19:36:25.491Z,2.70
2018-10-12T19:38:53.020Z,2.70
2018-10-12T19:41:20.636Z,2.92
2018-10-12T19:43:48.197Z,2.83
2018-10-12T19:46:15.801Z,2.60
2018-10-12T19:48:43.428Z,2.60
2018-10-12T19:51:11.187Z,2.58
2018-10-12T19:53:38.924Z,2.58
2018-10-12T19:56:07.105Z,2.83
2018-10-12T19:58:35.219Z,2.55
2018-10-12T20:01:02.769Z,2.40
2018-10-12T20:03:30.345Z,2.67
2018-10-12T20:05:58.027Z,2.20
2018-10-12T20:08:25.892Z,2.90
2018-10-12T20:10:53.477Z,3.12
2018-10-12T20:13:21.019Z,3.10
2018-10-12T20:15:48.595Z,3.12
2018-10-12T20:18:16.153Z,3.00
2018-10-12T20:20:43.721Z,3.12
2018-10-12T20:23:11.264Z,2.95
2018-10-12T20:25:39.608Z,2.80
2018-10-12T20:28:07.228Z,2.93
2018-10-12T20:30:34.807Z,2.90
2018-10-12T20:33:02.331Z,2.75
2018-10-12T20:35:30.092Z,3.02
2018-10-12T20:37:57.744Z,2.70
2018-10-12T20:40:25.305Z,2.70
2018-10-12T20:42:52.871Z,2.67
2018-10-12T20:45:20.429Z,2.90
2018-10-12T20:47:48.001Z,2.95
2018-10-12T20:50:15.771Z,3.00
2018-10-12T20:52:43.280Z,2.42
2018-10-12T20:55:10.845Z,2.50
2018-10-12T20:57:43.999Z,3.27
2018-10-12T21:00:11.799Z,2.77
2018-10-12T21:02:39.520Z,2.70
2018-10-12T21:05:07.068Z,2.72
2018-10-12T21:07:34.636Z,2.67
2018-10-12T21:10:02.500Z,2.50
2018-10-12T21:12:30.090Z,2.50
2018-10-12T21:14:57.764Z,2.98
2018-10-12T21:17:25.557Z,2.72
2018-10-12T21:19:53.121Z,2.77
2018-10-12T21:22:20.940Z,3.20
2018-10-12T21:24:48.870Z,3.02
2018-10-12T21:27:16.491Z,2.95
2018-10-12T21:29:44.074Z,3.37
2018-10-12T21:32:11.650Z,2.65
2018-10-12T21:34:39.205Z,3.10
2018-10-12T21:37:06.791Z,3.00
2018-10-12T21:39:34.416Z,2.75
2018-10-12T21:42:01.967Z,2.70
2018-10-12T21:44:29.617Z,2.87
2018-10-12T21:46:57.219Z,2.92
2018-10-12T21:49:24.997Z,2.63
2018-10-12T21:51:52.701Z,2.37
2018-10-12T21:54:20.244Z,2.63
2018-10-12T21:56:47.813Z,3.60
2018-10-12T21:59:15.493Z,3.00
2018-10-12T22:01:43.356Z,2.80
2018-10-12T22:04:10.941Z,2.43
2018-10-12T22:06:38.542Z,2.40
2018-10-12T22:09:07.520Z,2.83
2018-10-12T22:11:35.100Z,3.50
2018-10-12T22:14:02.833Z,2.95
2018-10-12T22:16:30.569Z,3.40
2018-10-12T22:18:58.113Z,2.97
2018-10-12T22:21:25.823Z,3.43
2018-10-12T22:23:53.387Z,3.37
2018-10-12T22:26:20.984Z,2.90
2018-10-12T22:28:48.562Z,3.00
2018-10-12T22:31:16.196Z,3.13
2018-10-12T22:33:43.773Z,3.13
2018-10-12T22:36:11.372Z,3.13
2018-10-12T22:38:38.941Z,3.13
2018-10-12T22:41:06.585Z,2.83
2018-10-12T22:43:34.146Z,3.37
2018-10-12T22:46:01.740Z,3.08
2018-10-12T22:48:29.280Z,3.57
2018-10-12T22:50:56.838Z,2.97
2018-10-12T22:53:24.533Z,3.10
2018-10-12T22:55:52.177Z,2.97
2018-10-12T22:58:19.764Z,2.72
2018-10-12T23:00:47.348Z,2.80
2018-10-12T23:03:14.932Z,2.77
2018-10-12T23:05:42.944Z,3.10
2018-10-12T23:08:10.517Z,2.83
2018-10-12T23:10:38.086Z,2.73
2018-10-12T23:13:05.743Z,2.73
2018-10-12T23:15:33.330Z,2.70
2018-10-12T23:18:00.933Z,2.50
2018-10-12T23:20:28.475Z,2.70
2018-10-12T23:22:56.198Z,2.35
2018-10-12T23:25:23.794Z,2.90
2018-10-12T23:27:51.363Z,2.67
2018-10-12T23:30:19.040Z,2.93
2018-10-12T23:32:46.598Z,3.70
2018-10-12T23:35:14.180Z,3.50
2018-10-12T23:37:41.936Z,3.27
2018-10-12T23:40:09.574Z,3.30
2018-10-12T23:42:37.170Z,3.03
2018-10-12T23:45:05.176Z,3.20
2018-10-12T23:47:32.742Z,3.70
2018-10-12T23:50:00.355Z,3.40
2018-10-12T23:52:27.995Z,3.50
2018-10-12T23:54:55.836Z,2.80
2018-10-12T23:57:23.418Z,3.30
2018-10-12T23:59:50.984Z,3.37
